createdAt,value
2019-02-27T00:01:32.618Z,5.17
2019-02-27T00:04:40.915Z,4.33
2019-02-27T00:07:49.124Z,4.57
2019-02-27T00:10:57.371Z,4.73
2019-02-27T00:14:05.634Z,4.57
2019-02-27T00:17:15.096Z,4.97
2019-02-27T00:20:23.854Z,3.97
2019-02-27T00:23:32.067Z,4.67
2019-02-27T00:26:42.512Z,4.37
2019-02-27T00:29:42.846Z,4.70
2019-02-27T00:32:43.881Z,5.57
2019-02-27T00:35:45.492Z,7.13
2019-02-27T00:38:46.600Z,6.10
2019-02-27T00:41:48.383Z,6.20
2019-02-27T00:44:50.016Z,5.93
2019-02-27T00:47:53.245Z,5.60
2019-02-27T00:50:52.216Z,4.93
2019-02-27T00:54:00.421Z,4.67
2019-02-27T00:57:08.733Z,5.33
2019-02-27T01:03:32.453Z,5.90
2019-02-27T01:06:40.675Z,6.33
2019-02-27T01:09:48.911Z,6.37
2019-02-27T01:12:58.128Z,5.97
2019-02-27T01:16:07.048Z,5.43
2019-02-27T01:19:15.260Z,5.43
2019-02-27T01:22:23.529Z,4.50
2019-02-27T01:25:31.831Z,4.13
2019-02-27T01:28:32.723Z,3.70
2019-02-27T01:31:34.498Z,4.30
2019-02-27T01:34:35.917Z,4.23
2019-02-27T01:37:37.264Z,4.53
2019-02-27T01:40:38.414Z,3.77
2019-02-27T01:43:39.885Z,3.83
2019-02-27T01:46:41.632Z,3.57
2019-02-27T01:49:43.164Z,3.93
2019-02-27T01:52:44.903Z,3.30
2019-02-27T01:55:45.776Z,3.67
2019-02-27T01:58:46.674Z,3.43
2019-02-27T02:01:47.487Z,3.60
2019-02-27T02:04:53.763Z,3.83
2019-02-27T02:07:54.697Z,3.60
2019-02-27T02:10:56.059Z,4.00
2019-02-27T02:13:57.631Z,4.23
2019-02-27T02:16:58.433Z,3.60
2019-02-27T02:20:00.054Z,3.57
2019-02-27T02:23:01.324Z,4.10
2019-02-27T02:26:03.128Z,3.57
2019-02-27T02:29:04.081Z,3.50
2019-02-27T02:32:05.030Z,3.63
2019-02-27T02:35:06.560Z,3.90
2019-02-27T02:38:11.990Z,3.40
2019-02-27T02:41:10.856Z,3.57
2019-02-27T02:44:11.596Z,3.30
2019-02-27T02:47:12.654Z,3.50
2019-02-27T02:50:17.428Z,4.37
2019-02-27T02:53:10.723Z,2.70
2019-02-27T02:56:24.010Z,2.90
2019-02-27T02:59:38.631Z,3.10
2019-02-27T03:02:42.242Z,3.13
2019-02-27T03:06:05.344Z,2.70
2019-02-27T03:09:12.722Z,2.80
2019-02-27T03:12:37.613Z,2.50
2019-02-27T03:15:48.736Z,2.50
2019-02-27T03:18:48.620Z,2.70
2019-02-27T03:21:43.017Z,2.57
2019-02-27T03:24:36.968Z,3.10
2019-02-27T03:27:36.539Z,2.80
2019-02-27T03:30:36.098Z,2.47
2019-02-27T03:33:45.396Z,2.97
2019-02-27T03:36:48.847Z,2.90
2019-02-27T03:39:48.465Z,3.20
2019-02-27T03:42:45.721Z,3.50
2019-02-27T03:45:57.775Z,4.17
2019-02-27T03:49:23.869Z,4.97
2019-02-27T03:52:18.351Z,3.93
2019-02-27T03:55:42.990Z,3.13
2019-02-27T03:58:43.325Z,3.43
2019-02-27T04:01:43.131Z,2.70
2019-02-27T04:04:46.500Z,2.90
2019-02-27T04:07:46.647Z,2.70
2019-02-27T04:10:34.851Z,3.27
2019-02-27T04:13:26.760Z,3.30
2019-02-27T04:16:11.720Z,2.90
2019-02-27T04:19:03.496Z,3.30
2019-02-27T04:21:48.857Z,2.63
2019-02-27T04:24:36.361Z,2.73
2019-02-27T04:27:24.182Z,2.50
2019-02-27T04:30:14.692Z,3.00
2019-02-27T04:33:01.332Z,2.60
2019-02-27T04:35:48.742Z,2.80
2019-02-27T04:38:36.696Z,2.87
2019-02-27T04:41:24.307Z,2.60
2019-02-27T04:44:12.157Z,3.17
2019-02-27T04:46:59.686Z,2.70
2019-02-27T04:49:48.022Z,2.80
2019-02-27T04:52:57.888Z,2.67
2019-02-27T04:55:44.854Z,3.20
2019-02-27T04:58:32.594Z,2.87
2019-02-27T05:01:20.545Z,2.77
2019-02-27T05:04:08.462Z,2.87
2019-02-27T05:06:56.568Z,2.80
2019-02-27T05:09:44.355Z,1.97
2019-02-27T05:12:32.256Z,2.50
2019-02-27T05:15:20.154Z,2.47
2019-02-27T05:18:07.963Z,2.20
2019-02-27T05:20:55.607Z,2.67
2019-02-27T05:23:43.777Z,2.60
2019-02-27T05:26:31.717Z,2.67
2019-02-27T05:29:19.474Z,3.10
2019-02-27T05:32:07.447Z,2.57
2019-02-27T05:34:55.120Z,2.77
2019-02-27T05:37:42.975Z,2.30
2019-02-27T05:40:31.013Z,2.73
2019-02-27T05:43:19.054Z,3.30
2019-02-27T05:46:07.013Z,3.13
2019-02-27T05:48:54.746Z,3.20
2019-02-27T05:51:42.908Z,3.20
2019-02-27T05:54:32.367Z,2.73
2019-02-27T05:57:21.089Z,2.60
2019-02-27T06:00:15.657Z,3.37
2019-02-27T06:03:03.296Z,3.10
2019-02-27T06:05:50.954Z,4.50
2019-02-27T06:08:38.762Z,4.40
2019-02-27T06:11:27.139Z,4.00
2019-02-27T06:14:16.208Z,3.53
2019-02-27T06:17:03.921Z,4.00
2019-02-27T06:19:51.624Z,3.80
2019-02-27T06:22:39.527Z,3.73
2019-02-27T06:25:27.482Z,3.47
2019-02-27T06:28:18.432Z,3.83
2019-02-27T06:31:04.945Z,4.33
2019-02-27T06:33:52.844Z,4.40
2019-02-27T06:36:42.839Z,4.80
2019-02-27T06:39:34.097Z,4.37
2019-02-27T06:42:20.256Z,4.53
2019-02-27T06:45:14.127Z,5.47
2019-02-27T06:48:02.076Z,5.60
2019-02-27T06:50:49.757Z,6.23
2019-02-27T06:53:37.734Z,5.50
2019-02-27T06:56:25.569Z,4.87
2019-02-27T06:59:12.940Z,4.13
2019-02-27T07:02:00.756Z,4.07
2019-02-27T07:04:48.831Z,3.87
2019-02-27T07:07:36.949Z,4.80
2019-02-27T07:10:24.292Z,4.60
2019-02-27T07:13:12.036Z,5.30
2019-02-27T07:16:00.026Z,4.33
2019-02-27T07:18:47.888Z,3.80
2019-02-27T07:21:35.847Z,3.73
2019-02-27T07:24:23.700Z,3.70
2019-02-27T07:27:11.662Z,5.17
2019-02-27T07:29:59.515Z,4.47
2019-02-27T07:32:47.539Z,4.13
2019-02-27T07:35:35.338Z,3.27
2019-02-27T07:38:25.463Z,3.57
2019-02-27T07:41:17.924Z,3.77
2019-02-27T07:44:02.069Z,4.17
2019-02-27T07:46:49.896Z,3.50
2019-02-27T07:49:37.782Z,4.70
2019-02-27T07:52:26.352Z,4.00
2019-02-27T07:55:21.658Z,3.93
2019-02-27T07:58:04.390Z,3.70
2019-02-27T08:00:52.361Z,4.07
2019-02-27T08:03:44.660Z,4.10
2019-02-27T08:06:29.589Z,3.43
2019-02-27T08:09:17.465Z,4.67
2019-02-27T08:12:05.262Z,4.13
2019-02-27T08:14:53.247Z,3.80
2019-02-27T08:17:40.914Z,4.47
2019-02-27T08:20:28.675Z,5.00
2019-02-27T08:23:16.188Z,5.07
2019-02-27T08:26:05.113Z,5.17
2019-02-27T08:28:53.276Z,4.80
2019-02-27T08:31:41.134Z,8.70
2019-02-27T08:34:28.836Z,6.00
2019-02-27T08:37:16.715Z,6.07
2019-02-27T08:40:07.328Z,6.50
2019-02-27T08:42:54.847Z,5.17
2019-02-27T08:45:42.207Z,6.10
2019-02-27T08:48:29.976Z,6.90
2019-02-27T08:51:17.556Z,6.27
2019-02-27T08:57:56.057Z,5.90
2019-02-27T09:04:15.693Z,5.67
2019-02-27T09:07:24.029Z,6.37
2019-02-27T09:13:40.234Z,7.07
2019-02-27T09:16:28.285Z,7.27
2019-02-27T09:19:15.849Z,7.33
2019-02-27T09:22:04.090Z,6.67
2019-02-27T09:24:51.482Z,6.67
2019-02-27T09:27:58.257Z,7.23
2019-02-27T09:31:03.356Z,6.73
2019-02-27T09:34:05.050Z,7.27
2019-02-27T09:37:06.759Z,6.93
2019-02-27T09:40:08.218Z,7.33
2019-02-27T09:43:09.088Z,8.53
2019-02-27T09:46:10.193Z,7.90
2019-02-27T09:49:11.183Z,8.50
2019-02-27T09:52:12.652Z,7.90
2019-02-27T09:55:14.305Z,10.07
2019-02-27T09:58:15.823Z,9.83
2019-02-27T10:01:16.971Z,11.03
2019-02-27T10:04:17.948Z,8.80
2019-02-27T10:10:01.605Z,7.93
2019-02-27T10:13:04.011Z,7.80
2019-02-27T10:16:05.235Z,10.63
2019-02-27T10:19:06.811Z,7.73
2019-02-27T10:21:35.876Z,7.90
2019-02-27T10:24:05.931Z,8.00
2019-02-27T10:26:35.387Z,7.20
2019-02-27T10:29:04.941Z,6.97
2019-02-27T10:31:34.720Z,6.43
2019-02-27T10:34:04.191Z,6.90
2019-02-27T10:36:38.272Z,6.67
2019-02-27T10:39:05.818Z,7.47
2019-02-27T10:41:35.321Z,7.07
2019-02-27T10:44:04.972Z,7.70
2019-02-27T10:46:34.427Z,7.03
2019-02-27T10:49:03.973Z,7.60
2019-02-27T10:51:33.775Z,7.90
2019-02-27T10:54:05.417Z,6.67
2019-02-27T10:56:34.438Z,7.50
2019-02-27T10:59:03.976Z,6.67
2019-02-27T11:01:36.401Z,6.87
2019-02-27T11:04:05.031Z,8.47
2019-02-27T11:06:37.738Z,6.20
2019-02-27T11:09:08.763Z,6.13
2019-02-27T11:11:38.234Z,7.00
2019-02-27T11:14:08.023Z,6.87
2019-02-27T11:16:37.787Z,6.40
2019-02-27T11:19:07.339Z,5.53
2019-02-27T11:21:36.872Z,6.10
2019-02-27T11:24:06.385Z,17.57
2019-02-27T11:26:35.889Z,8.30
2019-02-27T11:29:05.353Z,5.70
2019-02-27T11:31:34.891Z,5.87
2019-02-27T11:34:05.042Z,5.93
2019-02-27T11:36:39.068Z,6.10
2019-02-27T11:39:26.402Z,5.58
2019-02-27T11:42:17.599Z,5.67
2019-02-27T11:45:29.170Z,4.93
2019-02-27T11:48:37.499Z,4.93
2019-02-27T11:51:27.912Z,5.13
2019-02-27T11:54:36.416Z,5.63
2019-02-27T11:57:27.330Z,5.77
2019-02-27T12:00:37.579Z,5.58
2019-02-27T12:03:28.356Z,6.22
2019-02-27T12:06:17.639Z,5.93
2019-02-27T12:09:26.251Z,5.97
2019-02-27T12:12:34.607Z,5.90
2019-02-27T12:15:27.237Z,7.37
2019-02-27T12:22:04.490Z,6.57
2019-02-27T12:24:53.676Z,7.47
2019-02-27T12:27:49.097Z,7.17
2019-02-27T12:30:47.748Z,6.57
2019-02-27T12:33:30.052Z,6.47
2019-02-27T12:36:11.960Z,7.07
2019-02-27T12:38:53.757Z,6.97
2019-02-27T12:41:35.364Z,6.70
2019-02-27T12:44:18.109Z,6.20
2019-02-27T12:46:59.615Z,6.87
2019-02-27T12:49:41.550Z,6.50
2019-02-27T12:52:23.716Z,7.00
2019-02-27T12:55:05.753Z,6.90
2019-02-27T12:57:51.923Z,7.53
2019-02-27T13:00:32.036Z,10.13
2019-02-27T13:03:11.805Z,7.80
2019-02-27T13:06:00.966Z,6.97
2019-02-27T13:08:52.889Z,6.57
2019-02-27T13:12:02.034Z,7.37
2019-02-27T13:14:52.557Z,8.90
2019-02-27T13:18:00.892Z,7.13
2019-02-27T13:21:09.226Z,6.70
2019-02-27T13:23:58.099Z,5.90
2019-02-27T13:26:48.596Z,6.80
2019-02-27T13:29:39.092Z,6.27
2019-02-27T13:32:29.644Z,6.13
2019-02-27T13:35:22.652Z,6.20
2019-02-27T13:38:30.037Z,6.77
2019-02-27T13:41:20.776Z,7.83
2019-02-27T13:44:11.463Z,7.20
2019-02-27T13:47:01.948Z,6.20
2019-02-27T13:50:10.442Z,6.77
2019-02-27T13:53:00.913Z,7.17
2019-02-27T13:56:09.208Z,6.30
2019-02-27T13:59:19.567Z,6.65
2019-02-27T14:02:27.880Z,5.60
2019-02-27T14:05:18.583Z,6.67
2019-02-27T14:08:31.707Z,6.10
2019-02-27T14:11:37.743Z,5.15
2019-02-27T14:14:46.337Z,5.80
2019-02-27T14:17:35.737Z,5.95
2019-02-27T14:20:44.602Z,5.08
2019-02-27T14:23:33.786Z,5.70
2019-02-27T14:26:24.791Z,5.78
2019-02-27T14:29:15.811Z,6.25
2019-02-27T14:32:00.279Z,6.37
2019-02-27T14:34:43.099Z,6.67
2019-02-27T14:37:24.911Z,5.23
2019-02-27T14:40:07.475Z,4.77
2019-02-27T14:42:53.816Z,4.67
2019-02-27T14:45:33.829Z,5.20
2019-02-27T14:48:18.169Z,5.37
2019-02-27T14:51:00.352Z,4.60
2019-02-27T14:53:42.631Z,4.78
2019-02-27T14:56:25.179Z,4.33
2019-02-27T14:59:06.967Z,4.87
2019-02-27T15:01:49.443Z,4.63
2019-02-27T15:04:32.355Z,4.50
2019-02-27T15:07:15.022Z,4.23
2019-02-27T15:09:57.313Z,5.23
2019-02-27T15:12:40.198Z,4.40
2019-02-27T15:15:21.870Z,4.63
2019-02-27T15:18:04.176Z,4.73
2019-02-27T15:20:46.514Z,3.60
2019-02-27T15:23:29.028Z,8.90
2019-02-27T15:26:13.895Z,5.60
2019-02-27T15:28:55.773Z,6.57
2019-02-27T15:31:37.568Z,7.27
2019-02-27T15:34:21.496Z,31.00
2019-02-27T15:37:04.177Z,5.30
2019-02-27T15:39:46.575Z,4.50
2019-02-27T15:42:16.399Z,9.33
2019-02-27T15:45:26.319Z,14.47
2019-02-27T15:48:34.748Z,4.33
2019-02-27T15:51:28.543Z,3.45
2019-02-27T15:54:35.888Z,3.57
2019-02-27T15:57:25.143Z,2.80
2019-02-27T16:00:33.651Z,2.57
2019-02-27T16:03:04.636Z,3.70
2019-02-27T16:05:34.389Z,9.60
2019-02-27T16:08:04.460Z,27.07
2019-02-27T16:10:34.499Z,7.12
2019-02-27T16:13:23.670Z,2.50
2019-02-27T16:16:14.089Z,1.50
2019-02-27T16:19:02.958Z,1.93
2019-02-27T16:22:11.255Z,1.60
2019-02-27T16:25:00.303Z,1.53
2019-02-27T16:27:49.095Z,1.80
2019-02-27T16:30:57.401Z,1.67
2019-02-27T16:34:05.865Z,1.30
2019-02-27T16:40:22.543Z,1.53
2019-02-27T16:46:22.763Z,1.80
2019-02-27T16:49:50.656Z,2.00
2019-02-27T16:52:42.183Z,2.23
2019-02-27T16:56:03.401Z,3.23
2019-02-27T16:59:01.371Z,2.10
2019-02-27T17:01:51.810Z,2.97
2019-02-27T17:04:42.788Z,3.37
2019-02-27T17:07:52.351Z,3.90
2019-02-27T17:10:42.878Z,4.37
2019-02-27T17:13:51.162Z,4.10
2019-02-27T17:16:44.357Z,4.90
2019-02-27T17:19:50.143Z,4.63
2019-02-27T17:22:39.144Z,9.17
2019-02-27T17:25:29.971Z,13.13
2019-02-27T17:28:37.986Z,6.57
2019-02-27T17:31:28.531Z,7.27
2019-02-27T17:34:29.774Z,8.20
2019-02-27T17:37:11.707Z,7.87
2019-02-27T17:39:53.330Z,5.23
2019-02-27T17:42:34.704Z,4.70
2019-02-27T17:45:16.683Z,5.53
2019-02-27T17:47:58.675Z,5.87
2019-02-27T17:50:42.561Z,6.03
2019-02-27T17:53:22.800Z,5.70
2019-02-27T17:56:15.201Z,5.33
2019-02-27T17:59:22.417Z,6.40
2019-02-27T18:02:33.097Z,6.93
2019-02-27T18:05:41.256Z,6.43
2019-02-27T18:08:32.089Z,7.60
2019-02-27T18:11:23.151Z,6.73
2019-02-27T18:14:31.350Z,7.20
2019-02-27T18:17:22.145Z,10.73
2019-02-27T18:20:11.025Z,10.03
2019-02-27T18:23:00.024Z,25.73
2019-02-27T18:25:48.943Z,33.20
2019-02-27T18:28:38.018Z,17.20
2019-02-27T18:31:27.468Z,12.67
2019-02-27T18:34:37.294Z,14.77
2019-02-27T18:37:26.172Z,8.13
2019-02-27T18:40:34.440Z,11.63
2019-02-27T18:43:23.410Z,6.70
2019-02-27T18:46:12.388Z,9.57
2019-02-27T18:49:01.242Z,8.60
2019-02-27T18:52:09.506Z,9.63
2019-02-27T18:54:58.436Z,7.63
2019-02-27T18:57:47.614Z,7.10
2019-02-27T19:00:57.249Z,7.40
2019-02-27T19:03:46.032Z,7.50
2019-02-27T19:06:35.129Z,6.40
2019-02-27T19:09:24.091Z,6.43
2019-02-27T19:12:13.110Z,7.60
2019-02-27T19:15:02.018Z,7.20
2019-02-27T19:17:51.149Z,6.53
2019-02-27T19:21:00.159Z,6.87
2019-02-27T19:23:49.518Z,6.80
2019-02-27T19:26:59.057Z,5.73
2019-02-27T19:29:48.002Z,8.43
2019-02-27T19:32:30.381Z,7.80
2019-02-27T19:35:11.975Z,7.60
2019-02-27T19:37:53.686Z,6.43
2019-02-27T19:40:35.276Z,7.27
2019-02-27T19:43:45.186Z,6.87
2019-02-27T19:46:34.294Z,6.60
2019-02-27T19:49:23.181Z,7.30
2019-02-27T19:52:12.098Z,6.80
2019-02-27T19:55:00.837Z,7.17
2019-02-27T19:58:09.021Z,7.17
2019-02-27T20:01:18.361Z,6.65
2019-02-27T20:04:09.623Z,6.63
2019-02-27T20:07:18.344Z,6.50
2019-02-27T20:10:30.194Z,6.97
2019-02-27T20:13:38.237Z,7.10
2019-02-27T20:16:27.275Z,6.20
2019-02-27T20:19:22.421Z,7.70
2019-02-27T20:22:28.044Z,7.13
2019-02-27T20:25:43.166Z,7.25
2019-02-27T20:28:49.201Z,6.90
2019-02-27T20:31:38.133Z,7.53
2019-02-27T20:34:27.304Z,10.33
2019-02-27T20:37:16.223Z,11.60
2019-02-27T20:40:27.655Z,22.70
2019-02-27T20:43:36.229Z,18.50
2019-02-27T20:46:25.356Z,13.23
2019-02-27T20:49:15.824Z,11.43
2019-02-27T20:52:04.696Z,12.30
2019-02-27T20:55:13.299Z,11.57
2019-02-27T20:58:02.769Z,9.87
2019-02-27T21:00:51.808Z,9.40
2019-02-27T21:07:09.634Z,16.63
2019-02-27T21:10:23.065Z,10.83
2019-02-27T21:13:15.995Z,11.57
2019-02-27T21:16:23.405Z,12.07
2019-02-27T21:19:12.536Z,7.93
2019-02-27T21:22:01.519Z,8.00
2019-02-27T21:24:50.797Z,7.73
2019-02-27T21:27:39.783Z,7.70
2019-02-27T21:30:28.832Z,7.07
2019-02-27T21:33:30.599Z,6.13
2019-02-27T21:36:13.115Z,6.03
2019-02-27T21:38:55.099Z,7.07
2019-02-27T21:41:37.603Z,7.30
2019-02-27T21:44:25.403Z,6.40
2019-02-27T21:47:03.141Z,8.27
2019-02-27T21:49:45.635Z,12.60
2019-02-27T21:52:27.679Z,7.80
2019-02-27T21:55:13.067Z,6.10
2019-02-27T22:00:36.738Z,5.67
2019-02-27T22:03:18.815Z,7.23
2019-02-27T22:06:00.652Z,5.77
2019-02-27T22:09:13.467Z,5.53
2019-02-27T22:12:20.783Z,5.47
2019-02-27T22:15:30.575Z,6.20
2019-02-27T22:18:19.497Z,5.87
2019-02-27T22:21:08.436Z,4.73
2019-02-27T22:23:57.372Z,4.43
2019-02-27T22:27:05.627Z,4.47
2019-02-27T22:29:55.929Z,4.37
2019-02-27T22:32:57.914Z,4.60
2019-02-27T22:35:39.788Z,4.10
2019-02-27T22:38:25.855Z,4.63
2019-02-27T22:41:05.730Z,4.20
2019-02-27T22:43:47.687Z,3.73
2019-02-27T22:46:29.727Z,3.93
2019-02-27T22:49:12.625Z,3.17
2019-02-27T22:51:54.902Z,3.83
2019-02-27T22:54:36.880Z,3.10
2019-02-27T22:57:19.149Z,3.50
2019-02-27T23:00:01.095Z,3.43
2019-02-27T23:02:43.678Z,3.43
2019-02-27T23:05:25.516Z,2.63
2019-02-27T23:08:07.401Z,2.90
2019-02-27T23:10:49.486Z,3.13
2019-02-27T23:13:31.567Z,2.70
2019-02-27T23:19:15.791Z,2.17
2019-02-27T23:21:57.517Z,2.47
2019-02-27T23:24:46.439Z,2.10
2019-02-27T23:27:36.983Z,2.23
2019-02-27T23:30:26.165Z,2.60
2019-02-27T23:33:08.269Z,2.27
2019-02-27T23:35:50.849Z,1.90
2019-02-27T23:38:34.753Z,1.70
2019-02-27T23:41:23.166Z,2.08
2019-02-27T23:44:05.394Z,1.60
2019-02-27T23:46:51.318Z,1.50
2019-02-27T23:49:31.711Z,1.67
2019-02-27T23:52:13.783Z,1.67
2019-02-27T23:54:58.418Z,1.50
2019-02-27T23:57:40.994Z,1.70
